Date,TemperatureHighF,TemperatureAvgF,TemperatureLowF,DewpointHighF,DewpointAvgF,DewpointLowF,HumidityHigh,HumidityAvg,HumidityLow,PressureMaxIn,PressureMinIn,WindSpeedMaxMPH,WindSpeedAvgMPH,GustSpeedMaxMPH,PrecipitationSumIn
2013-4-1,56.5,45.7,35.5,43.2,36.2,28.9,94,70,53,30.14,29.86,9,1,10,0.01
2013-4-2,40.0,36.9,33.5,33.7,31.5,27.9,90,81,65,30.23,30.10,6,0,8,0.19
2013-4-3,55.4,42.2,29.2,31.7,27.8,24.2,89,61,34,30.25,30.11,9,1,12,0.00
2013-4-4,55.3,47.1,40.4,35.9,31.2,27.8,81,55,38,30.11,29.98,3,0,7,0.00
2013-4-5,71.5,51.9,29.2,43.4,35.1,26.7,94,58,30,30.12,29.90,4,0,12,0.00
2013-4-6,74.9,61.9,51.2,50.1,43.4,35.8,61,51,37,29.91,29.67,17,3,21,0.00
2013-4-7,79.2,65.2,55.1,60.2,53.1,47.8,85,66,42,29.80,29.62,12,1,16,0.00
2013-4-8,74.3,65.5,58.8,62.5,57.9,54.5,88,77,63,29.68,29.61,12,2,13,0.00
2013-4-9,79.1,68.5,61.1,65.0,59.6,55.4,85,74,57,29.70,29.60,12,2,16,0.00
2013-4-10,70.8,53.5,38.0,65.0,50.3,36.5,96,89,72,29.74,29.57,16,2,21,0.30
2013-4-11,48.5,38.8,33.2,36.7,33.1,30.6,100,81,56,29.76,29.67,16,4,18,0.46
2013-4-12,54.7,42.7,33.6,39.0,32.8,28.4,87,69,50,29.97,29.73,18,2,18,0.06
2013-4-13,71.0,52.7,34.4,49.9,40.2,31.6,94,66,40,30.01,29.73,13,1,13,0.00
2013-4-14,82.0,66.4,53.2,58.2,49.0,41.7,87,58,26,29.74,29.41,17,2,19,0.02
2013-4-15,82.1,65.0,53.7,66.4,57.5,47.9,92,78,54,29.76,29.57,10,1,13,0.00
2013-4-16,68.4,53.9,48.8,59.3,50.5,46.8,96,89,69,29.93,29.76,6,1,10,0.00
2013-4-17,83.5,68.4,47.8,71.6,61.0,46.4,99,79,59,29.91,29.52,15,2,20,0.00
2013-4-18,73.6,51.0,37.5,66.4,46.9,29.3,98,86,72,29.85,29.42,23,3,26,2.43
2013-4-19,52.6,42.3,33.0,34.1,28.5,24.7,75,59,39,30.04,29.85,18,4,22,0.00
2013-4-20,66.0,49.8,29.8,42.9,35.2,27.9,100,62,33,30.17,30.03,8,0,9,0.00
2013-4-21,68.5,55.9,47.4,46.7,41.3,38.1,80,60,37,30.21,30.05,13,1,16,0.00
2013-4-22,69.5,58.4,45.2,46.2,41.3,37.8,76,55,35,30.12,29.82,13,1,13,0.00
2013-4-23,60.2,48.0,35.6,53.8,44.0,34.4,97,87,60,30.01,29.75,9,0,11,0.59
2013-4-24,54.7,41.4,33.7,38.1,32.9,27.9,96,75,42,30.25,30.01,14,1,14,0.00
2013-4-25,69.9,51.4,31.2,42.2,34.8,28.4,94,59,28,30.31,30.15,10,1,10,0.00
2013-4-26,58.1,48.8,45.8,46.4,43.8,37.8,96,85,47,30.24,30.08,14,1,15,1.30
2013-4-27,54.5,50.0,46.1,52.2,48.8,45.0,97,96,91,30.10,29.91,11,1,14,0.12
2013-4-28,74.2,58.4,48.4,57.5,50.1,46.6,96,76,43,29.95,29.78,8,1,13,0.00
2013-4-29,87.3,68.7,49.2,65.2,55.4,47.8,98,67,32,29.82,29.64,11,1,13,0.00
2013-4-30,84.5,72.2,59.8,60.9,54.1,47.7,86,56,30,29.76,29.67,14,1,17,0.00